createdAt,value
2017-09-10T00:00:22.493Z,17.30
2017-09-10T00:02:50.770Z,17.30
2017-09-10T00:05:18.301Z,17.30
2017-09-10T00:07:45.811Z,17.30
2017-09-10T00:10:13.349Z,17.10
2017-09-10T00:12:41.643Z,17.30
2017-09-10T00:15:09.216Z,17.20
2017-09-10T00:17:36.725Z,17.20
2017-09-10T00:20:04.258Z,17.30
2017-09-10T00:22:31.759Z,17.10
2017-09-10T00:25:00.115Z,17.30
2017-09-10T00:27:27.640Z,17.30
2017-09-10T00:29:55.201Z,17.40
2017-09-10T00:32:22.712Z,17.30
2017-09-10T00:34:51.030Z,17.20
2017-09-10T00:37:18.553Z,17.10
2017-09-10T00:39:47.286Z,16.90
2017-09-10T00:42:14.802Z,16.90
2017-09-10T00:44:43.135Z,16.70
2017-09-10T00:47:10.636Z,16.70
2017-09-10T00:49:38.945Z,16.60
2017-09-10T00:52:06.457Z,16.60
2017-09-10T00:54:33.984Z,16.60
2017-09-10T00:57:01.507Z,16.70
2017-09-10T00:59:29.831Z,16.80
2017-09-10T01:01:57.351Z,16.80
2017-09-10T01:04:24.866Z,16.90
2017-09-10T01:06:52.411Z,16.80
2017-09-10T01:09:19.933Z,16.80
2017-09-10T01:11:47.490Z,16.90
2017-09-10T01:14:15.018Z,17.00
2017-09-10T01:16:42.563Z,16.90
2017-09-10T01:19:10.852Z,16.50
2017-09-10T01:21:39.168Z,16.30
2017-09-10T01:24:06.728Z,16.20
2017-09-10T01:26:34.250Z,16.20
2017-09-10T01:29:01.804Z,16.40
2017-09-10T01:31:29.357Z,16.50
2017-09-10T01:33:58.100Z,16.90
2017-09-10T01:36:25.655Z,16.90
2017-09-10T01:38:53.163Z,17.00
2017-09-10T01:41:20.751Z,17.10
2017-09-10T01:43:49.030Z,17.00
2017-09-10T01:46:16.562Z,17.00
2017-09-10T01:48:44.102Z,16.90
2017-09-10T01:51:11.686Z,16.70
2017-09-10T01:53:39.212Z,16.60
2017-09-10T01:56:06.738Z,16.60
2017-09-10T01:58:35.415Z,16.50
2017-09-10T02:01:02.982Z,16.50
2017-09-10T02:03:31.258Z,16.70
2017-09-10T02:05:59.590Z,16.70
2017-09-10T02:08:27.102Z,16.70
2017-09-10T02:10:54.615Z,16.60
2017-09-10T02:13:22.171Z,16.50
2017-09-10T02:15:49.683Z,16.50
2017-09-10T02:18:17.246Z,16.50
2017-09-10T02:20:44.751Z,16.60
2017-09-10T02:23:12.292Z,16.60
2017-09-10T02:25:39.802Z,16.60
2017-09-10T02:28:08.139Z,16.50
2017-09-10T02:30:35.659Z,16.40
2017-09-10T02:33:03.235Z,16.40
2017-09-10T02:35:30.743Z,16.40
2017-09-10T02:37:58.284Z,16.50
2017-09-10T02:40:25.832Z,16.50
2017-09-10T02:42:53.401Z,16.60
2017-09-10T02:45:20.906Z,16.40
2017-09-10T02:47:49.193Z,16.20
2017-09-10T02:50:16.743Z,16.20
2017-09-10T02:52:44.308Z,16.20
2017-09-10T02:55:11.886Z,16.20
2017-09-10T02:57:39.457Z,16.20
2017-09-10T03:00:06.967Z,16.20
2017-09-10T03:02:34.511Z,16.10
2017-09-10T03:05:02.047Z,16.20
2017-09-10T03:07:29.583Z,16.20
2017-09-10T03:09:58.244Z,16.20
2017-09-10T03:12:26.567Z,16.30
2017-09-10T03:14:54.076Z,16.30
2017-09-10T03:17:22.444Z,16.10
2017-09-10T03:19:49.974Z,16.10
2017-09-10T03:22:17.505Z,16.30
2017-09-10T03:24:45.041Z,16.30
2017-09-10T03:27:13.345Z,16.20
2017-09-10T03:29:40.875Z,16.20
2017-09-10T03:32:08.443Z,16.30
2017-09-10T03:34:35.987Z,15.90
2017-09-10T03:37:04.265Z,16.00
2017-09-10T03:39:31.794Z,16.00
2017-09-10T03:41:59.303Z,16.00
2017-09-10T03:44:26.844Z,16.10
2017-09-10T03:46:55.125Z,16.30
2017-09-10T03:49:23.416Z,16.10
2017-09-10T03:51:50.943Z,16.10
2017-09-10T03:54:18.496Z,16.10
2017-09-10T03:56:46.038Z,15.80
2017-09-10T03:59:13.588Z,16.00
2017-09-10T04:01:41.095Z,16.00
2017-09-10T04:04:08.759Z,15.90
2017-09-10T04:06:36.290Z,16.00
2017-09-10T04:09:03.841Z,16.10
2017-09-10T04:11:31.372Z,16.10
2017-09-10T04:13:58.899Z,16.00
2017-09-10T04:16:27.175Z,15.70
2017-09-10T04:18:55.489Z,15.70
2017-09-10T04:21:23.028Z,15.60
2017-09-10T04:23:50.578Z,15.70
2017-09-10T04:26:18.859Z,15.80
2017-09-10T04:31:20.299Z,15.90
2017-09-10T04:33:47.810Z,16.00
2017-09-10T04:36:15.351Z,15.90
2017-09-10T04:38:42.881Z,15.80
2017-09-10T04:41:10.406Z,15.70
2017-09-10T04:43:37.934Z,15.80
2017-09-10T04:46:05.472Z,15.60
2017-09-10T04:48:33.783Z,15.30
2017-09-10T04:51:01.303Z,15.30
2017-09-10T04:53:28.875Z,15.40
2017-09-10T04:55:56.388Z,15.30
2017-09-10T04:58:23.943Z,15.40
2017-09-10T05:00:51.445Z,15.20
2017-09-10T05:03:19.755Z,15.20
2017-09-10T05:05:47.281Z,15.10
2017-09-10T05:08:15.607Z,14.90
2017-09-10T05:10:43.177Z,14.90
2017-09-10T05:13:11.719Z,15.10
2017-09-10T05:15:39.994Z,15.20
2017-09-10T05:18:07.510Z,15.10
2017-09-10T05:20:35.048Z,15.20
2017-09-10T05:23:02.612Z,15.40
2017-09-10T05:25:30.909Z,15.00
2017-09-10T05:27:58.418Z,15.00
2017-09-10T05:30:25.946Z,14.90
2017-09-10T05:32:53.451Z,15.00
2017-09-10T05:35:20.988Z,15.20
2017-09-10T05:37:49.272Z,15.20
2017-09-10T05:40:16.802Z,15.20
2017-09-10T05:42:44.359Z,15.10
2017-09-10T05:45:11.894Z,15.20
2017-09-10T05:47:39.437Z,15.40
2017-09-10T05:50:06.972Z,15.30
2017-09-10T05:52:34.499Z,15.20
2017-09-10T05:55:02.834Z,15.20
2017-09-10T05:57:30.387Z,15.20
2017-09-10T05:59:57.918Z,15.40
2017-09-10T06:02:25.472Z,15.50
2017-09-10T06:04:53.759Z,15.80
2017-09-10T06:07:22.035Z,16.00
2017-09-10T06:09:50.343Z,16.10
2017-09-10T06:12:17.871Z,16.10
2017-09-10T06:14:46.179Z,16.30
2017-09-10T06:17:13.741Z,16.30
2017-09-10T06:19:41.308Z,16.70
2017-09-10T06:22:08.839Z,16.70
2017-09-10T06:24:36.367Z,16.40
2017-09-10T06:27:03.890Z,16.60
2017-09-10T06:29:31.409Z,16.70
2017-09-10T06:31:58.910Z,17.00
2017-09-10T06:34:26.495Z,16.90
2017-09-10T06:36:54.026Z,16.70
2017-09-10T06:39:21.555Z,16.90
2017-09-10T06:41:49.115Z,16.80
2017-09-10T06:44:16.650Z,16.80
2017-09-10T06:46:44.173Z,17.30
2017-09-10T06:49:11.808Z,17.50
2017-09-10T06:51:39.337Z,17.30
2017-09-10T06:54:07.694Z,17.80
2017-09-10T06:56:35.194Z,17.80
2017-09-10T06:59:02.746Z,17.70
2017-09-10T07:01:30.311Z,17.80
2017-09-10T07:03:57.830Z,17.60
2017-09-10T07:06:25.346Z,17.70
2017-09-10T07:08:52.889Z,17.60
2017-09-10T07:11:20.466Z,17.50
2017-09-10T07:13:48.037Z,17.40
2017-09-10T07:16:15.604Z,17.60
2017-09-10T07:18:43.126Z,17.80
2017-09-10T07:21:10.658Z,18.10
2017-09-10T07:23:38.970Z,18.10
2017-09-10T07:26:06.559Z,18.10
2017-09-10T07:28:34.058Z,17.80
2017-09-10T07:31:02.378Z,18.00
2017-09-10T07:33:30.717Z,17.90
2017-09-10T07:35:58.244Z,17.90
2017-09-10T07:38:25.770Z,17.80
2017-09-10T07:40:53.298Z,17.70
2017-09-10T07:43:20.823Z,18.00
2017-09-10T07:45:48.370Z,18.00
2017-09-10T07:48:15.890Z,17.90
2017-09-10T07:50:44.218Z,18.70
2017-09-10T07:53:11.722Z,18.70
2017-09-10T07:55:40.037Z,18.40
2017-09-10T07:58:07.567Z,18.40
2017-09-10T08:00:35.087Z,18.60
2017-09-10T08:03:02.623Z,18.70
2017-09-10T08:05:30.202Z,18.40
2017-09-10T08:07:58.767Z,18.50
2017-09-10T08:10:26.364Z,18.50
2017-09-10T08:12:53.895Z,18.60
2017-09-10T08:15:21.521Z,18.60
2017-09-10T08:17:49.103Z,18.70
2017-09-10T08:20:16.679Z,18.40
2017-09-10T08:22:44.210Z,18.70
2017-09-10T08:25:11.731Z,18.80
2017-09-10T08:27:40.035Z,18.90
2017-09-10T08:30:07.567Z,18.90
2017-09-10T08:32:35.873Z,18.90
2017-09-10T08:35:03.406Z,18.80
2017-09-10T08:37:31.712Z,19.40
2017-09-10T08:39:59.250Z,19.40
2017-09-10T08:42:27.575Z,19.70
2017-09-10T08:44:55.130Z,19.70
2017-09-10T08:47:22.700Z,20.30
2017-09-10T08:49:50.554Z,21.00
2017-09-10T08:52:18.120Z,22.10
2017-09-10T08:54:45.638Z,22.80
2017-09-10T08:57:13.200Z,23.50
2017-09-10T08:59:41.525Z,24.40
2017-09-10T09:02:09.052Z,24.40
2017-09-10T09:04:36.602Z,24.20
2017-09-10T09:07:04.913Z,25.80
2017-09-10T09:09:32.480Z,25.70
2017-09-10T09:12:00.035Z,26.40
2017-09-10T09:14:27.591Z,26.90
2017-09-10T09:16:55.107Z,27.20
2017-09-10T09:19:23.398Z,26.60
2017-09-10T09:21:51.712Z,26.30
2017-09-10T09:24:19.223Z,26.30
2017-09-10T09:26:46.750Z,26.80
2017-09-10T09:29:14.259Z,27.30
2017-09-10T09:31:41.802Z,28.20
2017-09-10T09:34:09.326Z,28.20
2017-09-10T09:36:37.431Z,29.10
2017-09-10T09:39:05.710Z,29.70
2017-09-10T09:41:34.024Z,29.50
2017-09-10T09:44:01.527Z,29.50
2017-09-10T09:46:29.084Z,29.40
2017-09-10T09:48:56.606Z,27.80
2017-09-10T09:51:24.138Z,28.00
2017-09-10T09:53:52.406Z,25.60
2017-09-10T09:56:19.966Z,25.60
2017-09-10T09:58:47.511Z,25.20
2017-09-10T10:01:15.125Z,25.50
2017-09-10T10:03:42.631Z,26.10
2017-09-10T10:06:11.253Z,26.50
2017-09-10T10:08:38.752Z,26.50
2017-09-10T10:11:06.310Z,27.10
2017-09-10T10:13:33.827Z,27.60
2017-09-10T10:16:01.358Z,27.90
2017-09-10T10:18:29.672Z,28.30
2017-09-10T10:20:58.121Z,28.30
2017-09-10T10:23:25.687Z,28.70
2017-09-10T10:25:53.224Z,28.20
2017-09-10T10:28:20.767Z,27.90
2017-09-10T10:30:48.299Z,27.10
2017-09-10T10:33:15.823Z,26.80
2017-09-10T10:35:43.362Z,26.80
2017-09-10T10:38:10.906Z,26.60
2017-09-10T10:40:38.427Z,25.70
2017-09-10T10:43:05.994Z,25.20
2017-09-10T10:45:33.502Z,25.60
2017-09-10T10:48:01.018Z,26.90
2017-09-10T10:50:28.523Z,27.50
2017-09-10T10:52:56.038Z,29.00
2017-09-10T10:55:25.179Z,30.80
2017-09-10T10:57:52.733Z,30.80
2017-09-10T11:00:20.262Z,30.30
2017-09-10T11:02:47.790Z,30.60
2017-09-10T11:05:15.331Z,30.90
2017-09-10T11:07:43.657Z,27.70
2017-09-10T11:10:11.969Z,26.90
2017-09-10T11:12:39.503Z,26.80
2017-09-10T11:15:07.007Z,26.70
2017-09-10T11:17:35.320Z,25.80
2017-09-10T11:20:02.842Z,25.70
2017-09-10T11:22:31.157Z,28.30
2017-09-10T11:24:58.685Z,28.30
2017-09-10T11:27:26.231Z,27.80
2017-09-10T11:29:54.509Z,26.90
2017-09-10T11:32:22.049Z,26.90
2017-09-10T11:34:49.669Z,27.20
2017-09-10T11:37:17.974Z,28.10
2017-09-10T11:39:46.262Z,29.80
2017-09-10T11:42:13.828Z,29.70
2017-09-10T11:44:41.327Z,30.50
2017-09-10T11:47:08.881Z,30.90
2017-09-10T11:49:37.174Z,30.50
2017-09-10T11:52:04.714Z,30.50
2017-09-10T11:54:32.989Z,30.90
2017-09-10T11:57:01.286Z,30.00
2017-09-10T11:59:28.806Z,29.90
2017-09-10T12:01:56.358Z,29.60
2017-09-10T12:04:24.091Z,28.50
2017-09-10T12:06:51.629Z,27.30
2017-09-10T12:09:20.076Z,26.50
2017-09-10T12:11:48.359Z,25.20
2017-09-10T12:14:16.668Z,24.90
2017-09-10T12:16:44.191Z,24.90
2017-09-10T12:19:12.482Z,23.70
2017-09-10T12:21:40.031Z,23.60
2017-09-10T12:24:07.620Z,24.10
2017-09-10T12:26:35.146Z,24.50
2017-09-10T12:29:03.474Z,24.50
2017-09-10T12:31:30.995Z,24.50
2017-09-10T12:33:58.554Z,24.10
2017-09-10T12:36:26.099Z,25.10
2017-09-10T12:38:54.435Z,26.90
2017-09-10T12:41:21.963Z,26.90
2017-09-10T12:43:50.271Z,26.50
2017-09-10T12:46:17.807Z,26.50
2017-09-10T12:48:46.215Z,26.40
2017-09-10T12:51:13.742Z,26.40
2017-09-10T12:53:41.337Z,26.80
2017-09-10T12:56:08.834Z,27.00
2017-09-10T12:58:36.367Z,26.80
2017-09-10T13:01:03.886Z,26.40
2017-09-10T13:03:31.414Z,26.10
2017-09-10T13:05:59.711Z,25.40
2017-09-10T13:08:27.267Z,25.40
2017-09-10T13:10:54.786Z,25.10
2017-09-10T13:13:22.354Z,24.80
2017-09-10T13:15:49.873Z,24.40
2017-09-10T13:18:17.403Z,24.60
2017-09-10T13:20:44.986Z,24.80
2017-09-10T13:23:12.545Z,24.60
2017-09-10T13:25:40.062Z,24.20
2017-09-10T13:28:07.607Z,23.50
2017-09-10T13:30:35.227Z,24.20
2017-09-10T13:33:02.779Z,24.80
2017-09-10T13:35:30.392Z,25.60
2017-09-10T13:37:59.237Z,26.40
2017-09-10T13:40:26.758Z,26.40
2017-09-10T13:42:54.275Z,27.00
2017-09-10T13:45:21.834Z,27.60
2017-09-10T13:47:49.358Z,27.70
2017-09-10T13:50:17.651Z,27.30
2017-09-10T13:52:45.182Z,27.20
2017-09-10T13:55:13.481Z,27.20
2017-09-10T13:57:41.045Z,27.10
2017-09-10T14:00:08.586Z,27.10
2017-09-10T14:02:36.895Z,25.70
2017-09-10T14:05:04.471Z,25.70
2017-09-10T14:07:31.990Z,25.20
2017-09-10T14:10:00.315Z,24.00
2017-09-10T14:12:27.831Z,24.00
2017-09-10T14:14:56.157Z,23.90
2017-09-10T14:17:23.688Z,23.90
2017-09-10T14:19:51.282Z,23.80
2017-09-10T14:22:18.786Z,23.90
2017-09-10T14:24:46.314Z,24.20
2017-09-10T14:27:13.843Z,24.00
2017-09-10T14:29:41.456Z,23.70
2017-09-10T14:32:09.898Z,23.60
2017-09-10T14:34:37.446Z,23.50
2017-09-10T14:37:05.063Z,23.60
2017-09-10T14:39:32.593Z,22.90
2017-09-10T14:42:00.139Z,23.20
2017-09-10T14:44:27.691Z,23.50
2017-09-10T14:46:55.259Z,24.40
2017-09-10T14:49:22.790Z,24.30
2017-09-10T14:51:50.349Z,23.90
2017-09-10T14:54:17.973Z,24.50
2017-09-10T14:56:45.527Z,25.30
2017-09-10T14:59:13.803Z,25.10
2017-09-10T15:01:41.335Z,25.10
2017-09-10T15:04:09.687Z,24.50
2017-09-10T15:06:37.251Z,24.50
2017-09-10T15:09:04.766Z,23.50
2017-09-10T15:11:33.095Z,23.70
2017-09-10T15:14:00.611Z,23.70
2017-09-10T15:16:28.922Z,23.20
2017-09-10T15:18:56.464Z,23.10
2017-09-10T15:21:24.010Z,23.30
2017-09-10T15:23:52.290Z,23.30
2017-09-10T15:26:20.617Z,23.60
2017-09-10T15:28:48.124Z,23.50
2017-09-10T15:31:16.450Z,23.30
2017-09-10T15:33:44.060Z,23.30
2017-09-10T15:36:11.628Z,23.10
2017-09-10T15:38:39.134Z,23.40
2017-09-10T15:41:06.658Z,22.90
2017-09-10T15:43:34.187Z,22.70
2017-09-10T15:46:02.490Z,22.30
2017-09-10T15:48:29.998Z,22.30
2017-09-10T15:50:57.543Z,22.10
2017-09-10T15:53:25.063Z,22.30
2017-09-10T15:55:52.630Z,22.00
2017-09-10T15:58:20.195Z,22.40
2017-09-10T16:00:47.755Z,22.60
2017-09-10T16:03:15.261Z,22.80
2017-09-10T16:05:43.567Z,22.30
2017-09-10T16:08:11.107Z,22.20
2017-09-10T16:10:38.652Z,22.60
2017-09-10T16:13:06.940Z,22.60
2017-09-10T16:15:34.461Z,22.60
2017-09-10T16:18:02.033Z,22.60
2017-09-10T16:20:29.582Z,22.40
2017-09-10T16:22:57.107Z,22.60
2017-09-10T16:25:25.415Z,22.10
2017-09-10T16:27:53.030Z,22.10
2017-09-10T16:30:20.551Z,22.10
2017-09-10T16:32:48.083Z,21.70
2017-09-10T16:35:15.615Z,21.80
2017-09-10T16:37:43.158Z,21.90
2017-09-10T16:40:10.726Z,21.60
2017-09-10T16:42:38.250Z,21.70
2017-09-10T16:45:05.784Z,21.60
2017-09-10T16:47:33.343Z,21.80
2017-09-10T16:50:00.846Z,21.80
2017-09-10T16:52:28.390Z,21.70
2017-09-10T16:54:55.989Z,22.00
2017-09-10T16:57:23.523Z,21.90
2017-09-10T16:59:51.066Z,21.60
2017-09-10T17:02:18.614Z,21.20
2017-09-10T17:04:46.138Z,21.00
2017-09-10T17:07:14.528Z,20.90
2017-09-10T17:09:42.048Z,20.90
2017-09-10T17:12:09.602Z,20.70
2017-09-10T17:14:37.110Z,20.70
2017-09-10T17:17:04.684Z,21.10
2017-09-10T17:19:32.633Z,21.20
2017-09-10T17:22:00.171Z,21.40
2017-09-10T17:24:28.515Z,21.20
2017-09-10T17:26:56.038Z,21.20
2017-09-10T17:29:23.558Z,21.30
2017-09-10T17:31:51.119Z,20.90
2017-09-10T17:34:18.794Z,20.80
2017-09-10T17:36:46.402Z,21.10
2017-09-10T17:39:13.943Z,21.20
2017-09-10T17:41:41.526Z,21.20
2017-09-10T17:44:09.037Z,21.10
2017-09-10T17:46:36.571Z,20.80
2017-09-10T17:49:04.106Z,20.80
2017-09-10T17:51:31.644Z,21.20
2017-09-10T17:53:59.154Z,21.10
2017-09-10T17:56:26.719Z,21.00
2017-09-10T17:58:54.467Z,21.10
2017-09-10T18:01:22.836Z,20.70
2017-09-10T18:03:50.383Z,20.70
2017-09-10T18:06:17.958Z,20.50
2017-09-10T18:08:45.513Z,20.50
2017-09-10T18:11:13.038Z,20.20
2017-09-10T18:13:41.359Z,20.20
2017-09-10T18:16:08.926Z,20.20
2017-09-10T18:18:36.480Z,20.30
2017-09-10T18:21:03.995Z,20.20
2017-09-10T18:23:32.323Z,20.20
2017-09-10T18:25:59.871Z,20.20
2017-09-10T18:28:27.387Z,19.90
2017-09-10T18:30:55.676Z,19.40
2017-09-10T18:33:23.982Z,19.80
2017-09-10T18:35:51.487Z,19.70
2017-09-10T18:38:19.046Z,19.70
2017-09-10T18:40:47.362Z,19.50
2017-09-10T18:43:14.916Z,19.50
2017-09-10T18:45:42.470Z,19.80
2017-09-10T18:48:10.028Z,19.60
2017-09-10T18:50:37.586Z,19.80
2017-09-10T18:53:05.915Z,19.20
2017-09-10T18:55:33.464Z,19.20
2017-09-10T18:58:01.036Z,19.20
2017-09-10T19:00:28.568Z,19.10
2017-09-10T19:02:56.099Z,19.10
2017-09-10T19:05:23.620Z,19.40
2017-09-10T19:07:51.190Z,19.40
2017-09-10T19:10:18.706Z,19.60
2017-09-10T19:12:46.271Z,19.40
2017-09-10T19:15:13.794Z,19.00
2017-09-10T19:17:42.120Z,18.80
2017-09-10T19:20:09.648Z,18.80
2017-09-10T19:22:37.203Z,19.00
2017-09-10T19:25:04.729Z,19.00
2017-09-10T19:27:32.250Z,19.00
2017-09-10T19:29:59.824Z,19.10
2017-09-10T19:32:27.366Z,19.10
2017-09-10T19:34:54.926Z,19.00
2017-09-10T19:37:22.483Z,18.90
2017-09-10T19:39:50.034Z,18.80
2017-09-10T19:42:17.634Z,19.00
2017-09-10T19:44:45.185Z,19.10
2017-09-10T19:47:12.691Z,19.00
2017-09-10T19:49:40.274Z,18.70
2017-09-10T19:52:07.779Z,18.90
2017-09-10T19:54:35.325Z,18.60
2017-09-10T19:57:02.835Z,18.70
2017-09-10T19:59:30.397Z,18.70
2017-09-10T20:01:58.843Z,18.70
2017-09-10T20:04:26.524Z,18.80
2017-09-10T20:06:54.104Z,18.70
2017-09-10T20:09:21.630Z,18.50
2017-09-10T20:11:49.167Z,18.50
2017-09-10T20:14:16.735Z,18.50
2017-09-10T20:16:44.247Z,18.50
2017-09-10T20:19:11.807Z,18.50
2017-09-10T20:21:39.321Z,18.50
2017-09-10T20:24:06.891Z,18.30
2017-09-10T20:26:35.578Z,18.10
2017-09-10T20:29:03.885Z,18.10
2017-09-10T20:31:31.394Z,18.00
2017-09-10T20:33:59.051Z,18.10
2017-09-10T20:36:27.335Z,18.90
2017-09-10T20:38:54.889Z,18.80
2017-09-10T20:41:22.446Z,18.50
2017-09-10T20:43:49.983Z,18.70
2017-09-10T20:46:17.515Z,18.50
2017-09-10T20:48:45.057Z,18.40
2017-09-10T20:51:13.340Z,18.20
2017-09-10T20:53:41.661Z,18.20
2017-09-10T20:56:09.195Z,18.20
2017-09-10T20:58:36.739Z,18.60
2017-09-10T21:01:05.018Z,18.40
2017-09-10T21:03:32.542Z,18.40
2017-09-10T21:06:00.038Z,18.30
2017-09-10T21:08:27.572Z,18.50
2017-09-10T21:10:55.073Z,18.40
2017-09-10T21:13:22.595Z,18.30
2017-09-10T21:15:50.146Z,18.10
2017-09-10T21:18:17.749Z,18.00
2017-09-10T21:20:45.312Z,17.90
2017-09-10T21:23:12.924Z,17.70
2017-09-10T21:25:40.580Z,17.90
2017-09-10T21:28:08.121Z,17.80
2017-09-10T21:30:35.670Z,18.10
2017-09-10T21:33:03.185Z,18.20
2017-09-10T21:35:30.738Z,18.10
2017-09-10T21:37:59.173Z,18.20
2017-09-10T21:40:26.731Z,18.30
2017-09-10T21:42:54.290Z,18.20
2017-09-10T21:45:21.819Z,18.20
2017-09-10T21:47:50.133Z,18.10
2017-09-10T21:50:17.699Z,18.10
2017-09-10T21:52:45.276Z,17.80
2017-09-10T21:55:12.827Z,17.90
2017-09-10T21:57:40.383Z,17.90
2017-09-10T22:00:08.109Z,18.10
2017-09-10T22:02:35.616Z,18.20
2017-09-10T22:05:03.168Z,17.90
2017-09-10T22:07:30.700Z,18.20
2017-09-10T22:09:59.148Z,18.20
2017-09-10T22:12:26.695Z,18.20
2017-09-10T22:14:54.287Z,18.10
2017-09-10T22:17:21.834Z,18.10
2017-09-10T22:19:50.118Z,18.30
2017-09-10T22:22:18.408Z,18.60
2017-09-10T22:24:45.966Z,18.50
2017-09-10T22:27:13.535Z,18.40
2017-09-10T22:29:41.072Z,18.20
2017-09-10T22:32:08.603Z,17.60
2017-09-10T22:34:36.147Z,18.10
2017-09-10T22:37:03.671Z,18.00
2017-09-10T22:39:31.223Z,18.00
2017-09-10T22:42:00.000Z,17.70
2017-09-10T22:44:28.314Z,18.00
2017-09-10T22:46:55.942Z,18.00
2017-09-10T22:49:24.238Z,18.20
2017-09-10T22:51:51.809Z,18.10
2017-09-10T22:54:19.355Z,18.20
2017-09-10T22:56:46.967Z,17.90
2017-09-10T22:59:14.470Z,18.00
2017-09-10T23:01:42.035Z,18.20
2017-09-10T23:04:09.562Z,18.20
2017-09-10T23:06:37.132Z,18.00
2017-09-10T23:09:05.422Z,17.70
2017-09-10T23:11:33.733Z,18.00
2017-09-10T23:14:02.026Z,18.00
2017-09-10T23:16:29.574Z,18.00
2017-09-10T23:18:57.084Z,18.00
2017-09-10T23:21:25.380Z,17.80
2017-09-10T23:23:52.978Z,17.80
2017-09-10T23:26:20.515Z,17.90
2017-09-10T23:28:48.038Z,18.00
2017-09-10T23:31:16.320Z,17.70
2017-09-10T23:33:43.863Z,17.60
2017-09-10T23:36:12.256Z,17.60
2017-09-10T23:38:40.543Z,17.50
2017-09-10T23:41:08.875Z,18.00
2017-09-10T23:43:36.413Z,17.90
2017-09-10T23:46:03.990Z,18.20
2017-09-10T23:48:32.319Z,18.10
2017-09-10T23:51:00.610Z,18.00
2017-09-10T23:53:28.126Z,17.90
2017-09-10T23:55:55.687Z,18.00
2017-09-10T23:58:23.192Z,17.80
